createdAt,value
2019-03-16T00:00:55.642Z,9.2
2019-03-16T00:01:58.190Z,9.3
2019-03-16T00:02:58.095Z,9.3
2019-03-16T00:03:58.014Z,9.3
2019-03-16T00:04:57.914Z,9.3
2019-03-16T00:05:57.803Z,9.2
2019-03-16T00:06:57.728Z,9.1
2019-03-16T00:07:57.636Z,9.1
2019-03-16T00:08:57.540Z,9.1
2019-03-16T00:09:57.440Z,9.1
2019-03-16T00:10:57.810Z,9.1
2019-03-16T00:11:58.278Z,9.1
2019-03-16T00:12:58.927Z,9.1
2019-03-16T00:13:58.953Z,9.1
2019-03-16T00:14:58.864Z,9
2019-03-16T00:15:58.763Z,9
2019-03-16T00:16:58.666Z,9
2019-03-16T00:17:58.607Z,9
2019-03-16T00:18:58.524Z,9
2019-03-16T00:19:58.420Z,8.9
2019-03-16T00:20:58.848Z,8.9
2019-03-16T00:21:58.825Z,8.9
2019-03-16T00:22:58.719Z,8.8
2019-03-16T00:23:58.744Z,8.8
2019-03-16T00:24:58.663Z,8.8
2019-03-16T00:25:58.669Z,8.8
2019-03-16T00:26:58.562Z,8.8
2019-03-16T00:27:58.480Z,8.9
2019-03-16T00:28:58.406Z,8.9
2019-03-16T00:29:58.299Z,8.8
2019-03-16T00:30:58.711Z,8.8
2019-03-16T00:31:58.625Z,8.8
2019-03-16T00:32:58.516Z,8.8
2019-03-16T00:33:58.426Z,8.8
2019-03-16T00:34:58.421Z,8.8
2019-03-16T00:35:58.327Z,8.8
2019-03-16T00:36:58.242Z,8.8
2019-03-16T00:37:58.164Z,8.8
2019-03-16T00:38:58.108Z,8.8
2019-03-16T00:39:58.014Z,8.8
2019-03-16T00:40:58.365Z,8.8
2019-03-16T00:41:58.267Z,8.8
2019-03-16T00:42:58.168Z,8.7
2019-03-16T00:43:58.083Z,8.7
2019-03-16T00:44:58.001Z,8.8
2019-03-16T00:45:57.880Z,8.8
2019-03-16T00:46:57.788Z,8.8
2019-03-16T00:47:57.677Z,8.8
2019-03-16T00:48:57.564Z,8.7
2019-03-16T00:49:57.470Z,8.7
2019-03-16T00:50:57.767Z,8.8
2019-03-16T00:51:57.659Z,8.8
2019-03-16T00:52:57.566Z,8.8
2019-03-16T00:53:57.536Z,8.8
2019-03-16T00:54:57.458Z,8.8
2019-03-16T00:55:57.344Z,8.8
2019-03-16T00:56:57.356Z,8.8
2019-03-16T00:57:57.286Z,8.8
2019-03-16T00:58:57.166Z,8.8
2019-03-16T00:59:57.042Z,8.8
2019-03-16T01:00:57.374Z,8.7
2019-03-16T01:01:57.262Z,8.7
2019-03-16T01:02:57.159Z,8.7
2019-03-16T01:03:57.062Z,8.7
2019-03-16T01:04:56.930Z,8.7
2019-03-16T01:05:56.841Z,8.7
2019-03-16T01:06:56.719Z,8.8
2019-03-16T01:07:56.626Z,8.8
2019-03-16T01:08:56.508Z,8.8
2019-03-16T01:09:56.383Z,8.7
2019-03-16T01:10:56.759Z,8.8
2019-03-16T01:11:56.678Z,8.7
2019-03-16T01:12:56.584Z,8.8
2019-03-16T01:13:56.488Z,8.8
2019-03-16T01:14:56.390Z,8.7
2019-03-16T01:15:56.308Z,8.7
2019-03-16T01:16:56.271Z,8.7
2019-03-16T01:17:56.168Z,8.7
2019-03-16T01:18:56.060Z,8.7
2019-03-16T01:19:55.990Z,8.7
2019-03-16T01:20:56.347Z,8.7
2019-03-16T01:21:56.245Z,8.7
2019-03-16T01:22:56.244Z,8.7
2019-03-16T01:23:56.131Z,8.7
2019-03-16T01:24:56.084Z,8.7
2019-03-16T01:25:55.963Z,8.7
2019-03-16T01:26:55.878Z,8.7
2019-03-16T01:27:55.774Z,8.6
2019-03-16T01:28:55.686Z,8.6
2019-03-16T01:29:55.588Z,8.6
2019-03-16T01:30:55.908Z,8.6
2019-03-16T01:31:55.821Z,8.6
2019-03-16T01:32:55.727Z,8.6
2019-03-16T01:33:55.654Z,8.6
2019-03-16T01:34:55.635Z,8.6
2019-03-16T01:35:55.538Z,8.6
2019-03-16T01:36:55.426Z,8.6
2019-03-16T01:37:55.322Z,8.6
2019-03-16T01:38:55.208Z,8.6
2019-03-16T01:39:55.107Z,8.6
2019-03-16T01:40:55.438Z,8.6
2019-03-16T01:41:55.352Z,8.6
2019-03-16T01:42:55.247Z,8.6
2019-03-16T01:43:55.178Z,8.6
2019-03-16T01:44:55.110Z,8.5
2019-03-16T01:45:55.022Z,8.5
2019-03-16T01:46:54.928Z,8.5
2019-03-16T01:47:54.842Z,8.5
2019-03-16T01:48:54.737Z,8.5
2019-03-16T01:49:54.644Z,8.5
2019-03-16T01:50:54.950Z,8.5
2019-03-16T01:51:54.830Z,8.5
2019-03-16T01:52:54.736Z,8.6
2019-03-16T01:53:54.652Z,8.6
2019-03-16T01:54:54.604Z,8.6
2019-03-16T01:55:54.506Z,8.6
2019-03-16T01:56:54.398Z,8.6
2019-03-16T01:57:54.286Z,8.6
2019-03-16T01:58:54.206Z,8.5
2019-03-16T01:59:54.106Z,8.6
2019-03-16T02:00:54.404Z,8.6
2019-03-16T02:01:54.292Z,8.6
2019-03-16T02:02:56.436Z,8.6
2019-03-16T02:03:56.332Z,8.6
2019-03-16T02:04:56.219Z,8.6
2019-03-16T02:05:56.125Z,8.6
2019-03-16T02:06:56.026Z,8.6
2019-03-16T02:07:55.912Z,8.5
2019-03-16T02:08:55.850Z,8.5
2019-03-16T02:09:55.815Z,8.5
2019-03-16T02:10:56.134Z,8.5
2019-03-16T02:11:56.013Z,8.5
2019-03-16T02:12:55.932Z,8.5
2019-03-16T02:13:55.836Z,8.5
2019-03-16T02:14:55.846Z,8.5
2019-03-16T02:15:55.767Z,8.5
2019-03-16T02:17:09.930Z,8.4
2019-03-16T02:18:09.826Z,8.5
2019-03-16T02:19:09.786Z,8.5
2019-03-16T02:20:09.698Z,8.4
2019-03-16T02:21:10.014Z,8.5
2019-03-16T02:22:09.900Z,8.4
2019-03-16T02:23:09.811Z,8.4
2019-03-16T02:24:09.704Z,8.4
2019-03-16T02:25:12.580Z,8.5
2019-03-16T02:26:12.475Z,8.5
2019-03-16T02:27:12.362Z,8.5
2019-03-16T02:28:12.250Z,8.5
2019-03-16T02:29:12.146Z,8.5
2019-03-16T02:30:12.185Z,8.5
2019-03-16T02:31:12.655Z,8.5
2019-03-16T02:32:12.569Z,8.5
2019-03-16T02:33:14.434Z,8.4
2019-03-16T02:34:14.336Z,8.5
2019-03-16T02:35:14.311Z,8.5
2019-03-16T02:36:14.235Z,8.5
2019-03-16T02:37:14.135Z,8.5
2019-03-16T02:38:14.082Z,8.5
2019-03-16T02:39:14.002Z,8.5
2019-03-16T02:40:13.921Z,8.5
2019-03-16T02:41:14.382Z,8.5
2019-03-16T02:42:14.311Z,8.5
2019-03-16T02:43:14.209Z,8.5
2019-03-16T02:44:14.117Z,8.6
2019-03-16T02:45:14.014Z,8.6
2019-03-16T02:46:13.959Z,8.6
2019-03-16T02:47:13.888Z,8.6
2019-03-16T02:48:13.791Z,8.5
2019-03-16T02:49:13.687Z,8.5
2019-03-16T02:50:13.589Z,8.5
2019-03-16T02:51:13.960Z,8.4
2019-03-16T02:52:13.968Z,8.5
2019-03-16T02:53:13.891Z,8.5
2019-03-16T02:54:13.833Z,8.6
2019-03-16T02:55:13.794Z,8.7
2019-03-16T02:56:13.715Z,8.7
2019-03-16T02:57:13.607Z,8.7
2019-03-16T02:58:13.527Z,8.7
2019-03-16T02:59:13.449Z,8.8
2019-03-16T03:00:13.392Z,8.8
2019-03-16T03:01:13.864Z,8.9
2019-03-16T03:02:13.826Z,9.7
2019-03-16T03:03:30.737Z,9
2019-03-16T03:04:30.643Z,9
2019-03-16T03:05:30.552Z,9
2019-03-16T03:06:30.541Z,9
2019-03-16T03:07:30.458Z,9.1
2019-03-16T03:08:30.393Z,9.1
2019-03-16T03:09:30.358Z,9.1
2019-03-16T03:10:30.258Z,9.1
2019-03-16T03:11:30.620Z,9.1
2019-03-16T03:12:30.554Z,9.1
2019-03-16T03:13:30.564Z,9.2
2019-03-16T03:14:30.494Z,9.2
2019-03-16T03:15:30.399Z,9.1
2019-03-16T03:16:30.306Z,9.1
2019-03-16T03:17:30.241Z,9.1
2019-03-16T03:18:30.178Z,9.1
2019-03-16T03:19:30.088Z,9.1
2019-03-16T03:20:30.029Z,9
2019-03-16T03:21:30.357Z,8.9
2019-03-16T03:22:30.288Z,8.9
2019-03-16T03:23:30.213Z,8.9
2019-03-16T03:24:30.129Z,8.9
2019-03-16T03:25:30.051Z,8.9
2019-03-16T03:26:29.985Z,8.9
2019-03-16T03:27:30.049Z,8.9
2019-03-16T03:28:30.040Z,8.9
2019-03-16T03:29:29.941Z,8.8
2019-03-16T03:30:30.087Z,8.8
2019-03-16T03:31:30.605Z,8.8
2019-03-16T03:32:30.616Z,8.8
2019-03-16T03:34:03.028Z,8.8
2019-03-16T03:35:03.372Z,8.8
2019-03-16T03:36:03.443Z,8.8
2019-03-16T03:37:03.345Z,8.8
2019-03-16T03:38:03.344Z,8.7
2019-03-16T03:39:03.576Z,8.7
2019-03-16T03:40:03.510Z,8.7
2019-03-16T03:41:03.426Z,8.7
2019-03-16T03:42:03.848Z,8.7
2019-03-16T03:43:03.833Z,8.7
2019-03-16T03:44:03.777Z,8.6
2019-03-16T03:45:03.717Z,8.7
2019-03-16T03:46:03.644Z,8.6
2019-03-16T03:47:03.643Z,8.7
2019-03-16T03:48:03.560Z,8.6
2019-03-16T03:49:03.532Z,8.7
2019-03-16T03:50:03.477Z,8.7
2019-03-16T03:51:03.424Z,8.7
2019-03-16T03:52:03.857Z,8.7
2019-03-16T03:53:03.846Z,8.6
2019-03-16T03:54:03.778Z,8.6
2019-03-16T03:55:03.787Z,8.7
2019-03-16T03:56:03.690Z,8.6
2019-03-16T03:57:03.612Z,8.6
2019-03-16T03:58:03.564Z,8.6
2019-03-16T03:59:03.641Z,8.6
2019-03-16T04:00:03.627Z,8.6
2019-03-16T04:01:03.563Z,8.6
2019-03-16T04:02:04.210Z,8.6
2019-03-16T04:03:04.251Z,8.6
2019-03-16T04:04:16.655Z,8.6
2019-03-16T04:05:16.737Z,8.7
2019-03-16T04:06:16.726Z,8.7
2019-03-16T04:07:21.177Z,8.7
2019-03-16T04:08:21.119Z,8.8
2019-03-16T04:09:21.051Z,8.8
2019-03-16T04:10:20.971Z,8.8
2019-03-16T04:11:20.924Z,8.9
2019-03-16T04:12:21.310Z,8.9
2019-03-16T04:13:21.221Z,8.9
2019-03-16T04:14:21.156Z,9
2019-03-16T04:15:21.102Z,9
2019-03-16T04:16:21.102Z,8.9
2019-03-16T04:17:21.012Z,9
2019-03-16T04:18:20.899Z,9
2019-03-16T04:19:20.795Z,8.9
2019-03-16T04:20:20.738Z,8.9
2019-03-16T04:21:20.673Z,8.9
2019-03-16T04:22:21.031Z,8.9
2019-03-16T04:23:20.924Z,8.9
2019-03-16T04:24:20.817Z,8.9
2019-03-16T04:25:20.769Z,8.9
2019-03-16T04:26:20.712Z,8.9
2019-03-16T04:27:20.641Z,8.8
2019-03-16T04:28:20.557Z,8.8
2019-03-16T04:29:20.478Z,8.8
2019-03-16T04:30:20.390Z,8.8
2019-03-16T04:31:20.316Z,8.7
2019-03-16T04:32:20.663Z,8.7
2019-03-16T04:33:20.614Z,8.7
2019-03-16T04:34:30.425Z,8.7
2019-03-16T04:35:30.373Z,8.7
2019-03-16T04:36:30.284Z,8.7
2019-03-16T04:37:30.181Z,8.8
2019-03-16T04:38:30.109Z,8.8
2019-03-16T04:39:29.995Z,8.9
2019-03-16T04:40:29.913Z,8.9
2019-03-16T04:41:29.817Z,9
2019-03-16T04:42:30.162Z,9
2019-03-16T04:43:30.147Z,9
2019-03-16T04:44:30.043Z,8.9
2019-03-16T04:45:29.950Z,9
2019-03-16T04:46:32.033Z,9
2019-03-16T04:47:31.952Z,9.1
2019-03-16T04:48:31.859Z,9.1
2019-03-16T04:49:31.759Z,9.1
2019-03-16T04:50:31.647Z,9.1
2019-03-16T04:51:31.549Z,9.1
2019-03-16T04:52:31.879Z,9.1
2019-03-16T04:53:31.797Z,9.2
2019-03-16T04:54:31.683Z,9.2
2019-03-16T04:55:31.567Z,9.2
2019-03-16T04:56:31.459Z,9.2
2019-03-16T04:57:31.351Z,9.2
2019-03-16T04:58:31.285Z,9.1
2019-03-16T04:59:31.197Z,9.1
2019-03-16T05:00:31.077Z,9
2019-03-16T05:01:30.979Z,9
2019-03-16T05:02:31.281Z,9
2019-03-16T05:03:31.195Z,9
2019-03-16T05:04:43.368Z,8.9
2019-03-16T05:05:43.387Z,8.8
2019-03-16T05:06:43.275Z,8.8
2019-03-16T05:07:43.265Z,8.8
2019-03-16T05:08:43.195Z,8.8
2019-03-16T05:09:43.089Z,8.8
2019-03-16T05:10:42.995Z,8.8
2019-03-16T05:11:42.893Z,8.7
2019-03-16T05:12:43.220Z,8.8
2019-03-16T05:13:43.127Z,8.8
2019-03-16T05:14:43.041Z,8.8
2019-03-16T05:15:42.929Z,8.8
2019-03-16T05:16:42.831Z,8.8
2019-03-16T05:17:42.753Z,8.8
2019-03-16T05:18:42.649Z,8.8
2019-03-16T05:19:42.575Z,8.9
2019-03-16T05:20:42.489Z,8.9
2019-03-16T05:21:42.405Z,9
2019-03-16T05:22:42.725Z,9
2019-03-16T05:23:42.721Z,9.1
2019-03-16T05:24:42.591Z,9.1
2019-03-16T05:25:42.501Z,9.1
2019-03-16T05:26:42.396Z,9.1
2019-03-16T05:27:42.301Z,9.1
2019-03-16T05:28:42.193Z,9.1
2019-03-16T05:29:42.091Z,9.1
2019-03-16T05:30:42.001Z,9.1
2019-03-16T05:31:41.901Z,9
2019-03-16T05:32:42.205Z,9
2019-03-16T05:33:42.186Z,8.9
2019-03-16T05:34:56.982Z,9
2019-03-16T05:35:56.973Z,8.9
2019-03-16T05:36:56.914Z,8.8
2019-03-16T05:37:56.859Z,8.8
2019-03-16T05:38:56.775Z,8.9
2019-03-16T05:39:56.657Z,8.9
2019-03-16T05:40:56.570Z,8.8
2019-03-16T05:41:56.463Z,8.8
2019-03-16T05:42:56.803Z,8.8
2019-03-16T05:43:56.690Z,8.8
2019-03-16T05:44:56.572Z,8.8
2019-03-16T05:45:56.485Z,8.9
2019-03-16T05:46:56.425Z,8.8
2019-03-16T05:47:56.312Z,8.8
2019-03-16T05:48:56.209Z,8.8
2019-03-16T05:49:56.115Z,8.8
2019-03-16T05:50:58.155Z,8.8
2019-03-16T05:51:58.142Z,8.8
2019-03-16T05:52:58.458Z,8.8
2019-03-16T05:53:58.332Z,8.8
2019-03-16T05:54:58.232Z,8.8
2019-03-16T05:55:58.159Z,8.9
2019-03-16T05:56:58.055Z,8.8
2019-03-16T05:57:57.927Z,8.8
2019-03-16T05:58:57.819Z,8.9
2019-03-16T05:59:57.733Z,8.8
2019-03-16T06:00:57.625Z,8.8
2019-03-16T06:01:57.539Z,8.8
2019-03-16T06:02:57.837Z,8.9
2019-03-16T06:03:57.757Z,8.9
2019-03-16T06:05:11.858Z,8.9
2019-03-16T06:06:11.777Z,8.9
2019-03-16T06:07:11.694Z,8.9
2019-03-16T06:08:11.587Z,8.9
2019-03-16T06:09:11.497Z,8.9
2019-03-16T06:10:11.451Z,8.9
2019-03-16T06:11:11.346Z,8.9
2019-03-16T06:12:11.234Z,8.9
2019-03-16T06:13:11.712Z,8.9
2019-03-16T06:14:11.593Z,8.9
2019-03-16T06:15:11.478Z,8.9
2019-03-16T06:16:11.393Z,9
2019-03-16T06:17:11.299Z,9
2019-03-16T06:18:13.846Z,9
2019-03-16T06:19:13.760Z,9.1
2019-03-16T06:20:13.661Z,9.1
2019-03-16T06:21:13.569Z,9.2
2019-03-16T06:22:13.462Z,9.2
2019-03-16T06:23:13.829Z,9.2
2019-03-16T06:24:13.726Z,9.2
2019-03-16T06:25:13.623Z,9.2
2019-03-16T06:26:13.526Z,9.2
2019-03-16T06:27:13.440Z,9.1
2019-03-16T06:28:13.342Z,9.1
2019-03-16T06:29:13.248Z,9.1
2019-03-16T06:30:13.139Z,9.2
2019-03-16T06:31:13.030Z,9.1
2019-03-16T06:32:12.926Z,9.1
2019-03-16T06:33:13.263Z,9
2019-03-16T06:34:13.139Z,9
2019-03-16T06:35:29.708Z,9
2019-03-16T06:36:29.617Z,9
2019-03-16T06:37:29.505Z,8.9
2019-03-16T06:38:29.416Z,8.9
2019-03-16T06:39:29.323Z,8.9
2019-03-16T06:40:29.213Z,8.8
2019-03-16T06:41:29.134Z,8.8
2019-03-16T06:42:29.030Z,8.7
2019-03-16T06:43:29.332Z,8.7
2019-03-16T06:44:29.234Z,8.7
2019-03-16T06:45:29.133Z,8.7
2019-03-16T06:46:29.013Z,8.7
2019-03-16T06:47:28.934Z,8.8
2019-03-16T06:48:28.837Z,8.8
2019-03-16T06:49:28.755Z,8.9
2019-03-16T06:50:28.646Z,8.9
2019-03-16T06:51:28.540Z,9
2019-03-16T06:52:28.453Z,9
2019-03-16T06:53:28.777Z,9.1
2019-03-16T06:54:28.702Z,9.1
2019-03-16T06:55:28.704Z,9.2
2019-03-16T06:56:28.603Z,9.2
2019-03-16T06:57:28.533Z,9.3
2019-03-16T06:58:28.426Z,9.3
2019-03-16T06:59:28.412Z,9.3
2019-03-16T07:00:28.304Z,9.4
2019-03-16T07:01:28.198Z,9.4
2019-03-16T07:02:28.185Z,9.4
2019-03-16T07:03:28.516Z,9.5
2019-03-16T07:04:28.404Z,9.6
2019-03-16T07:05:39.432Z,9.6
2019-03-16T07:06:39.316Z,9.7
2019-03-16T07:07:39.275Z,9.6
2019-03-16T07:08:39.171Z,9.7
2019-03-16T07:09:39.059Z,9.6
2019-03-16T07:10:38.973Z,9.6
2019-03-16T07:11:38.924Z,9.6
2019-03-16T07:12:38.818Z,9.6
2019-03-16T07:13:39.147Z,9.6
2019-03-16T07:14:39.070Z,9.5
2019-03-16T07:15:39.048Z,9.6
2019-03-16T07:16:38.967Z,9.6
2019-03-16T07:17:38.876Z,9.6
2019-03-16T07:18:38.795Z,9.6
2019-03-16T07:19:38.683Z,9.6
2019-03-16T07:20:38.573Z,9.6
2019-03-16T07:21:38.546Z,9.5
2019-03-16T07:22:38.461Z,9.6
2019-03-16T07:23:38.990Z,9.5
2019-03-16T07:24:38.892Z,9.6
2019-03-16T07:25:38.773Z,9.6
2019-03-16T07:26:38.766Z,9.7
2019-03-16T07:27:38.661Z,9.6
2019-03-16T07:28:38.542Z,9.7
2019-03-16T07:29:38.445Z,9.6
2019-03-16T07:30:38.338Z,9.6
2019-03-16T07:31:38.262Z,9.6
2019-03-16T07:32:38.158Z,9.6
2019-03-16T07:33:38.558Z,9.6
2019-03-16T07:34:38.520Z,9.6
2019-03-16T07:35:38.428Z,9.6
2019-03-16T07:36:38.324Z,9.7
2019-03-16T07:37:38.245Z,9.6
2019-03-16T07:38:38.159Z,9.7
2019-03-16T07:39:38.049Z,9.7
2019-03-16T07:40:37.940Z,9.7
2019-03-16T07:41:37.863Z,9.7
2019-03-16T07:42:37.801Z,9.8
2019-03-16T07:43:38.088Z,9.8
2019-03-16T07:44:37.981Z,9.8
2019-03-16T07:45:37.882Z,9.9
2019-03-16T07:46:37.776Z,9.9
2019-03-16T07:47:37.734Z,10
2019-03-16T07:48:37.632Z,10.1
2019-03-16T07:49:39.632Z,10.1
2019-03-16T07:50:39.539Z,10.1
2019-03-16T07:51:39.422Z,10.3
2019-03-16T07:52:39.335Z,10.3
2019-03-16T07:53:39.674Z,10.4
2019-03-16T07:54:39.571Z,10.6
2019-03-16T07:55:42.915Z,10.7
2019-03-16T07:56:42.811Z,10.7
2019-03-16T07:57:42.737Z,10.9
2019-03-16T07:58:42.641Z,10.9
2019-03-16T07:59:42.540Z,11
2019-03-16T08:00:42.430Z,11.1
2019-03-16T08:01:42.318Z,11.2
2019-03-16T08:02:42.197Z,11.2
2019-03-16T08:03:42.558Z,11.3
2019-03-16T08:04:44.135Z,11.4
2019-03-16T08:05:44.027Z,11.4
2019-03-16T08:06:43.948Z,11.4
2019-03-16T08:07:43.865Z,11.5
2019-03-16T08:08:46.830Z,11.6
2019-03-16T08:09:46.728Z,11.6
2019-03-16T08:10:46.624Z,11.7
2019-03-16T08:11:46.559Z,11.6
2019-03-16T08:12:46.449Z,11.7
2019-03-16T08:13:46.898Z,11.7
2019-03-16T08:14:46.958Z,11.7
2019-03-16T08:15:46.832Z,11.7
2019-03-16T08:16:46.731Z,11.7
2019-03-16T08:17:46.618Z,11.7
2019-03-16T08:18:46.528Z,11.6
2019-03-16T08:19:46.495Z,11.7
2019-03-16T08:20:46.392Z,11.6
2019-03-16T08:21:46.299Z,11.7
2019-03-16T08:22:46.192Z,11.8
2019-03-16T08:23:46.532Z,12
2019-03-16T08:24:46.426Z,12
2019-03-16T08:25:46.454Z,12
2019-03-16T08:26:46.352Z,12
2019-03-16T08:27:55.282Z,11.9
2019-03-16T08:28:55.206Z,11.9
2019-03-16T08:29:55.209Z,11.8
2019-03-16T08:30:57.481Z,11.9
2019-03-16T08:31:57.392Z,12.1
2019-03-16T08:32:57.293Z,12.3
2019-03-16T08:33:57.664Z,12.7
2019-03-16T08:35:01.468Z,12.8
2019-03-16T08:36:01.407Z,12.9
2019-03-16T08:37:01.308Z,13
2019-03-16T08:38:01.190Z,13.2
2019-03-16T08:39:01.120Z,13.4
2019-03-16T08:40:01.011Z,13.5
2019-03-16T08:41:00.888Z,13.7
2019-03-16T08:42:00.831Z,13.8
2019-03-16T08:43:00.723Z,13.9
2019-03-16T08:44:01.089Z,14
2019-03-16T08:45:01.075Z,14.1
2019-03-16T08:46:00.976Z,14.3
2019-03-16T08:47:00.860Z,14.3
2019-03-16T08:48:03.286Z,14.3
2019-03-16T08:49:03.210Z,14.3
2019-03-16T08:50:03.146Z,14.2
2019-03-16T08:51:03.063Z,14.2
2019-03-16T08:52:02.957Z,14.4
2019-03-16T08:53:02.857Z,14.3
2019-03-16T08:54:03.216Z,14.5
2019-03-16T08:55:03.146Z,14.6
2019-03-16T08:56:03.028Z,14.6
2019-03-16T08:57:02.952Z,14.5
2019-03-16T08:58:06.991Z,14.6
2019-03-16T08:59:07.134Z,14.7
2019-03-16T09:00:07.079Z,14.7
2019-03-16T09:01:06.983Z,14.7
2019-03-16T09:02:06.965Z,14.7
2019-03-16T09:03:06.862Z,14.8
2019-03-16T09:04:13.990Z,14.7
2019-03-16T09:05:13.890Z,14.7
2019-03-16T09:06:13.781Z,14.8
2019-03-16T09:07:13.678Z,14.7
2019-03-16T09:08:13.816Z,14.6
2019-03-16T09:09:13.742Z,14.8
2019-03-16T09:10:13.661Z,14.8
2019-03-16T09:11:13.847Z,14.8
2019-03-16T09:12:13.718Z,14.7
2019-03-16T09:13:13.642Z,14.6
2019-03-16T09:14:13.960Z,14.6
2019-03-16T09:15:13.895Z,14.7
2019-03-16T09:16:13.822Z,14.6
2019-03-16T09:17:13.805Z,14.6
2019-03-16T09:18:13.702Z,14.7
2019-03-16T09:19:13.648Z,14.7
2019-03-16T09:20:13.557Z,14.7
2019-03-16T09:21:13.476Z,14.8
2019-03-16T09:22:13.367Z,14.9
2019-03-16T09:23:13.569Z,14.8
2019-03-16T09:24:13.978Z,14.9
2019-03-16T09:25:14.002Z,14.8
2019-03-16T09:26:14.142Z,14.8
2019-03-16T09:27:14.015Z,14.8
2019-03-16T09:28:19.678Z,14.9
2019-03-16T09:29:19.594Z,14.8
2019-03-16T09:30:19.512Z,14.9
2019-03-16T09:31:19.470Z,15
2019-03-16T09:32:19.345Z,15
2019-03-16T09:33:19.705Z,15.1
2019-03-16T09:34:21.340Z,15.2
2019-03-16T09:35:21.462Z,15.3
2019-03-16T09:36:21.401Z,15.3
2019-03-16T09:37:21.434Z,15.4
2019-03-16T09:38:21.345Z,15.5
2019-03-16T09:39:21.261Z,15.5
2019-03-16T09:40:21.206Z,15.5
2019-03-16T09:41:21.109Z,15.3
2019-03-16T09:42:21.039Z,15.3
2019-03-16T09:43:20.969Z,15.3
2019-03-16T09:44:21.271Z,15.2
2019-03-16T09:45:21.185Z,15.3
2019-03-16T09:46:21.178Z,15.4
2019-03-16T09:47:21.096Z,15.3
2019-03-16T09:48:21.036Z,15.4
2019-03-16T09:49:20.938Z,15.4
2019-03-16T09:50:20.848Z,15.5
2019-03-16T09:51:20.795Z,15.5
2019-03-16T09:52:20.724Z,15.6
2019-03-16T09:53:20.615Z,15.7
2019-03-16T09:54:20.950Z,15.6
2019-03-16T09:55:20.867Z,15.6
2019-03-16T09:56:20.848Z,15.5
2019-03-16T09:57:20.770Z,15.6
2019-03-16T09:58:32.157Z,15.6
2019-03-16T09:59:32.084Z,15.5
2019-03-16T10:00:32.001Z,15.5
2019-03-16T10:01:31.866Z,15.3
2019-03-16T10:02:31.796Z,15.3
2019-03-16T10:03:31.707Z,15.5
2019-03-16T10:04:32.105Z,15.4
2019-03-16T10:05:31.978Z,15.5
2019-03-16T10:06:31.869Z,15.4
2019-03-16T10:07:31.754Z,15.4
2019-03-16T10:08:31.709Z,15.5
2019-03-16T10:09:31.599Z,15.3
2019-03-16T10:10:31.500Z,15.3
2019-03-16T10:11:31.377Z,15.2
2019-03-16T10:12:31.273Z,15.2
2019-03-16T10:13:31.182Z,15.2
2019-03-16T10:14:31.534Z,15.2
2019-03-16T10:15:31.519Z,15.1
2019-03-16T10:16:31.390Z,15
2019-03-16T10:17:31.287Z,15.1
2019-03-16T10:18:31.204Z,15.1
2019-03-16T10:19:31.122Z,15.2
2019-03-16T10:20:31.016Z,15.2
2019-03-16T10:21:30.947Z,15.2
2019-03-16T10:22:30.842Z,15.2
2019-03-16T10:23:30.975Z,15.3
2019-03-16T10:24:31.316Z,15.2
2019-03-16T10:25:31.202Z,15.1
2019-03-16T10:26:31.098Z,15.1
2019-03-16T10:27:31.013Z,15.1
2019-03-16T10:28:44.461Z,15
2019-03-16T10:29:44.350Z,14.9
2019-03-16T10:30:44.238Z,15
2019-03-16T10:31:44.134Z,14.9
2019-03-16T10:32:44.081Z,14.9
2019-03-16T10:33:44.239Z,14.9
2019-03-16T10:34:44.575Z,14.9
2019-03-16T10:35:44.533Z,14.8
2019-03-16T10:36:44.441Z,14.8
2019-03-16T10:37:44.334Z,14.7
2019-03-16T10:38:44.273Z,14.6
2019-03-16T10:39:44.178Z,14.7
2019-03-16T10:40:44.187Z,14.6
2019-03-16T10:41:44.079Z,14.6
2019-03-16T10:42:44.044Z,14.5
2019-03-16T10:43:43.970Z,14.5
2019-03-16T10:44:44.392Z,14.4
2019-03-16T10:45:44.290Z,14.1
2019-03-16T10:46:44.177Z,14.3
2019-03-16T10:47:44.167Z,14.4
2019-03-16T10:48:44.180Z,14.4
2019-03-16T10:49:44.115Z,14.4
2019-03-16T10:50:44.033Z,14.5
2019-03-16T10:51:43.924Z,14.2
2019-03-16T10:52:43.920Z,14.3
2019-03-16T10:53:43.820Z,14.5
2019-03-16T10:54:44.135Z,14.5
2019-03-16T10:55:44.066Z,14.5
2019-03-16T10:56:43.975Z,14.6
2019-03-16T10:57:43.974Z,14.7
2019-03-16T10:58:57.427Z,14.6
2019-03-16T10:59:57.320Z,14.7
2019-03-16T11:00:57.265Z,14.6
2019-03-16T11:01:57.170Z,14.6
2019-03-16T11:02:57.075Z,14.6
2019-03-16T11:03:56.983Z,14.6
2019-03-16T11:04:57.336Z,14.6
2019-03-16T11:05:57.269Z,14.5
2019-03-16T11:06:57.175Z,14.4
2019-03-16T11:07:57.059Z,14.4
2019-03-16T11:08:56.955Z,14.4
2019-03-16T11:09:56.851Z,14.3
2019-03-16T11:10:56.793Z,14.4
2019-03-16T11:11:56.725Z,14.5
2019-03-16T11:12:56.627Z,14.4
2019-03-16T11:13:56.527Z,14.4
2019-03-16T11:14:56.841Z,14.3
2019-03-16T11:15:56.737Z,14.4
2019-03-16T11:16:56.649Z,14.3
2019-03-16T11:17:56.555Z,14.3
2019-03-16T11:18:56.446Z,14.3
2019-03-16T11:19:56.317Z,14.3
2019-03-16T11:20:56.197Z,14.3
2019-03-16T11:21:56.121Z,14.4
2019-03-16T11:22:56.059Z,14.4
2019-03-16T11:23:55.951Z,14.4
2019-03-16T11:24:56.277Z,14.4
2019-03-16T11:25:56.183Z,14.2
2019-03-16T11:26:56.109Z,14.2
2019-03-16T11:27:56.015Z,14.2
2019-03-16T11:29:08.362Z,14.3
2019-03-16T11:30:09.417Z,14.3
2019-03-16T11:31:09.318Z,14.3
2019-03-16T11:32:09.231Z,14.3
2019-03-16T11:33:09.145Z,14.3
2019-03-16T11:34:09.051Z,14.3
2019-03-16T11:35:09.362Z,14.4
2019-03-16T11:36:09.243Z,14.4
2019-03-16T11:37:09.157Z,14.4
2019-03-16T11:38:09.073Z,14.4
2019-03-16T11:39:08.973Z,14.4
2019-03-16T11:40:08.875Z,14.4
2019-03-16T11:41:08.790Z,14.5
2019-03-16T11:42:08.703Z,14.5
2019-03-16T11:43:08.855Z,14.5
2019-03-16T11:44:09.793Z,14.5
2019-03-16T11:45:10.095Z,14.5
2019-03-16T11:46:10.006Z,14.5
2019-03-16T11:47:09.938Z,14.5
2019-03-16T11:48:09.865Z,14.5
2019-03-16T11:49:09.766Z,14.5
2019-03-16T11:50:09.668Z,14.5
2019-03-16T11:51:09.563Z,14.6
2019-03-16T11:52:09.506Z,14.6
2019-03-16T11:53:09.403Z,14.6
2019-03-16T11:54:09.341Z,14.4
2019-03-16T11:55:09.659Z,14.3
2019-03-16T11:56:19.006Z,14.4
2019-03-16T11:57:18.959Z,14.5
2019-03-16T11:58:18.855Z,14.5
2019-03-16T11:59:22.596Z,14.5
2019-03-16T12:00:22.490Z,14.6
2019-03-16T12:01:22.397Z,14.6
2019-03-16T12:02:22.311Z,14.6
2019-03-16T12:03:22.228Z,14.6
2019-03-16T12:04:22.168Z,14.6
2019-03-16T12:05:22.735Z,14.5
2019-03-16T12:06:22.651Z,14.6
2019-03-16T12:07:22.767Z,14.5
2019-03-16T12:08:22.681Z,14.5
2019-03-16T12:09:22.573Z,14.5
2019-03-16T12:10:22.493Z,14.5
2019-03-16T12:11:22.617Z,14.6
2019-03-16T12:12:22.512Z,14.7
2019-03-16T12:13:22.698Z,14.7
2019-03-16T12:14:22.665Z,14.8
2019-03-16T12:15:23.057Z,14.9
2019-03-16T12:16:22.950Z,14.9
2019-03-16T12:17:22.857Z,15
2019-03-16T12:18:22.744Z,15
2019-03-16T12:19:22.675Z,15
2019-03-16T12:20:22.585Z,15
2019-03-16T12:21:22.785Z,15
2019-03-16T12:22:22.697Z,15
2019-03-16T12:23:22.597Z,15.1
2019-03-16T12:24:22.492Z,15
2019-03-16T12:25:22.816Z,14.9
2019-03-16T12:26:22.732Z,14.9
2019-03-16T12:27:22.632Z,14.9
2019-03-16T12:28:22.530Z,14.9
2019-03-16T12:29:34.809Z,15
2019-03-16T12:30:34.707Z,15
2019-03-16T12:31:35.613Z,15
2019-03-16T12:32:35.504Z,15.1
2019-03-16T12:33:35.384Z,15.1
2019-03-16T12:34:35.284Z,15
2019-03-16T12:35:35.872Z,15
2019-03-16T12:36:35.773Z,15
2019-03-16T12:37:35.765Z,15
2019-03-16T12:38:35.948Z,15.1
2019-03-16T12:39:36.393Z,15.1
2019-03-16T12:40:36.342Z,15.2
2019-03-16T12:41:36.269Z,15.2
2019-03-16T12:42:36.161Z,15.2
2019-03-16T12:43:36.061Z,15.2
2019-03-16T12:44:36.006Z,15.3
2019-03-16T12:45:36.470Z,15.2
2019-03-16T12:46:36.607Z,15.3
2019-03-16T12:47:36.525Z,15.3
2019-03-16T12:48:36.422Z,15.4
2019-03-16T12:49:36.325Z,15.4
2019-03-16T12:50:36.239Z,15.4
2019-03-16T12:51:36.233Z,15.4
2019-03-16T12:52:36.273Z,15.3
2019-03-16T12:53:36.178Z,15.4
2019-03-16T12:54:39.227Z,15.4
2019-03-16T12:55:39.758Z,15.4
2019-03-16T12:56:39.703Z,15.4
2019-03-16T12:57:39.600Z,15.3
2019-03-16T12:58:39.503Z,15.4
2019-03-16T12:59:47.844Z,15.4
2019-03-16T13:00:47.733Z,15.4
2019-03-16T13:01:47.763Z,15.5
2019-03-16T13:02:47.879Z,15.5
2019-03-16T13:03:50.970Z,15.6
2019-03-16T13:04:50.916Z,15.7
2019-03-16T13:05:51.235Z,15.7
2019-03-16T13:06:51.180Z,15.8
2019-03-16T13:07:51.104Z,15.8
2019-03-16T13:08:51.103Z,15.8
2019-03-16T13:09:51.133Z,15.8
2019-03-16T13:10:51.040Z,15.9
2019-03-16T13:11:51.018Z,15.8
2019-03-16T13:12:51.188Z,15.9
2019-03-16T13:13:51.139Z,15.9
2019-03-16T13:14:51.017Z,15.9
2019-03-16T13:15:51.405Z,15.9
2019-03-16T13:16:51.444Z,15.9
2019-03-16T13:17:51.358Z,16
2019-03-16T13:18:51.258Z,16
2019-03-16T13:19:51.154Z,16.1
2019-03-16T13:20:51.052Z,16.2
2019-03-16T13:21:50.960Z,16.2
2019-03-16T13:22:51.068Z,16.3
2019-03-16T13:23:51.028Z,16.3
2019-03-16T13:24:50.930Z,16.3
2019-03-16T13:25:51.364Z,16.3
2019-03-16T13:26:51.279Z,16.4
2019-03-16T13:27:51.270Z,16.5
2019-03-16T13:28:51.283Z,16.4
2019-03-16T13:29:59.856Z,16.4
2019-03-16T13:30:59.975Z,16.4
2019-03-16T13:31:59.893Z,16.3
2019-03-16T13:32:59.793Z,16.4
2019-03-16T13:33:59.839Z,16.4
2019-03-16T13:34:59.754Z,16.4
2019-03-16T13:36:00.607Z,16.4
2019-03-16T13:37:00.754Z,16.4
2019-03-16T13:38:01.760Z,16.3
2019-03-16T13:39:01.839Z,16.4
2019-03-16T13:40:01.757Z,16.4
2019-03-16T13:41:01.670Z,16.4
2019-03-16T13:42:01.654Z,16.4
2019-03-16T13:43:01.744Z,16.5
2019-03-16T13:44:01.666Z,16.4